createdAt,value
2023-03-02T00:02:22.377Z,2.27
2023-03-02T00:07:31.913Z,2.31
2023-03-02T00:12:34.314Z,2.29
2023-03-02T00:17:37.196Z,2.24
2023-03-02T00:22:40.613Z,2.22
2023-03-02T00:27:42.559Z,2.16
2023-03-02T00:32:45.693Z,2.11
2023-03-02T00:37:48.210Z,2.09
2023-03-02T00:42:50.000Z,2.07
2023-03-02T00:47:51.952Z,2.06
2023-03-02T00:52:53.800Z,2.06
2023-03-02T00:57:55.566Z,2.02
2023-03-02T01:03:02.238Z,2.05
2023-03-02T01:08:04.390Z,2.07
2023-03-02T01:13:07.080Z,2.14
2023-03-02T01:18:08.773Z,2.20
2023-03-02T01:23:10.494Z,2.25
2023-03-02T01:28:12.761Z,2.32
2023-03-02T01:33:14.704Z,2.34
2023-03-02T01:38:16.476Z,2.34
2023-03-02T01:43:18.365Z,2.35
2023-03-02T01:48:39.020Z,2.30
2023-03-02T01:53:46.570Z,2.28
2023-03-02T01:58:53.758Z,2.18
2023-03-02T02:03:57.211Z,2.10
2023-03-02T02:09:01.512Z,1.94
2023-03-02T02:14:06.580Z,1.94
2023-03-02T02:19:39.419Z,1.98
2023-03-02T02:24:52.257Z,2.01
2023-03-02T02:29:54.463Z,2.05
2023-03-02T02:35:18.369Z,2.06
2023-03-02T02:40:38.340Z,2.04
2023-03-02T02:45:41.633Z,1.98
2023-03-02T02:50:44.358Z,1.94
2023-03-02T02:55:51.017Z,1.84
2023-03-02T03:00:54.674Z,1.75
2023-03-02T03:05:59.691Z,1.68
2023-03-02T03:11:02.211Z,1.72
2023-03-02T03:16:08.051Z,1.73
2023-03-02T03:21:10.575Z,1.79
2023-03-02T03:26:15.092Z,1.82
2023-03-02T03:31:17.366Z,1.80
2023-03-02T03:36:19.410Z,1.84
2023-03-02T03:41:22.132Z,1.85
2023-03-02T03:46:24.656Z,1.78
2023-03-02T03:51:27.432Z,1.81
2023-03-02T03:56:33.504Z,1.90
2023-03-02T04:01:38.760Z,1.93
2023-03-02T04:06:41.558Z,1.90
2023-03-02T04:11:44.958Z,1.84
2023-03-02T04:16:47.788Z,1.88
2023-03-02T04:21:52.363Z,1.87
2023-03-02T04:26:54.973Z,1.83
2023-03-02T04:31:56.812Z,1.80
2023-03-02T04:37:00.582Z,1.72
2023-03-02T04:42:02.566Z,1.76
2023-03-02T04:47:04.280Z,1.75
2023-03-02T04:52:06.685Z,1.75
2023-03-02T04:57:09.881Z,1.57
2023-03-02T05:02:11.848Z,1.38
2023-03-02T05:07:13.633Z,1.27
2023-03-02T05:12:15.483Z,1.19
2023-03-02T05:17:17.260Z,1.19
2023-03-02T05:22:19.372Z,1.10
2023-03-02T05:27:21.050Z,1.04
2023-03-02T05:32:22.723Z,1.10
2023-03-02T05:37:24.536Z,1.24
2023-03-02T05:42:26.424Z,1.20
2023-03-02T05:47:28.108Z,1.09
2023-03-02T05:52:29.837Z,1.09
2023-03-02T05:57:31.557Z,1.13
2023-03-02T06:02:33.253Z,1.14
2023-03-02T06:07:35.033Z,0.99
2023-03-02T06:12:37.193Z,0.93
2023-03-02T06:17:38.922Z,1.48
2023-03-02T06:22:45.483Z,1.54
2023-03-02T06:27:49.890Z,1.40
2023-03-02T06:32:51.846Z,1.46
2023-03-02T06:37:53.726Z,1.45
2023-03-02T06:42:55.366Z,1.42
2023-03-02T06:47:57.200Z,1.48
2023-03-02T06:52:59.018Z,1.72
2023-03-02T06:58:00.717Z,1.85
2023-03-02T07:03:02.523Z,1.95
2023-03-02T07:08:04.705Z,2.07
2023-03-02T07:13:08.732Z,2.18
2023-03-02T07:18:10.832Z,2.26
2023-03-02T07:23:12.699Z,2.37
2023-03-02T07:28:15.724Z,2.48
2023-03-02T07:33:17.389Z,2.59
2023-03-02T07:38:20.295Z,2.73
2023-03-02T07:43:24.108Z,2.87
2023-03-02T07:48:28.495Z,3.04
2023-03-02T07:53:33.063Z,3.20
2023-03-02T07:58:35.428Z,3.37
2023-03-02T08:03:38.873Z,3.54
2023-03-02T08:08:40.579Z,3.69
2023-03-02T08:13:43.005Z,3.83
2023-03-02T08:18:44.820Z,4.01
2023-03-02T08:23:46.738Z,4.23
2023-03-02T08:28:48.933Z,4.40
2023-03-02T08:33:50.739Z,4.56
2023-03-02T08:38:52.476Z,4.77
2023-03-02T08:43:57.291Z,4.95
2023-03-02T08:48:59.232Z,5.12
2023-03-02T08:54:01.237Z,5.30
2023-03-02T08:59:06.182Z,5.51
2023-03-02T09:04:09.586Z,5.72
2023-03-02T09:09:13.217Z,5.92
2023-03-02T09:14:15.205Z,6.13
2023-03-02T09:19:16.950Z,6.36
2023-03-02T09:24:22.978Z,6.53
2023-03-02T09:29:24.649Z,6.74
2023-03-02T09:34:26.462Z,6.94
2023-03-02T09:39:28.220Z,7.12
2023-03-02T09:44:42.010Z,7.33
2023-03-02T09:49:57.859Z,7.62
2023-03-02T09:55:11.515Z,7.83
2023-03-02T10:00:24.459Z,8.06
2023-03-02T10:05:45.275Z,8.35
2023-03-02T10:11:00.107Z,8.44
2023-03-02T10:16:42.716Z,8.59
2023-03-02T10:21:47.465Z,8.83
2023-03-02T10:26:54.290Z,9.03
2023-03-02T10:32:16.453Z,9.23
2023-03-02T10:37:29.339Z,9.44
2023-03-02T10:42:37.906Z,9.57
2023-03-02T10:47:39.700Z,9.74
2023-03-02T10:52:59.506Z,9.95
2023-03-02T10:58:21.841Z,10.15
2023-03-02T11:03:23.817Z,10.26
2023-03-02T11:08:27.872Z,10.38
2023-03-02T11:13:35.642Z,10.42
2023-03-02T11:18:43.764Z,10.55
2023-03-02T11:24:05.787Z,10.78
2023-03-02T11:29:25.904Z,10.92
2023-03-02T11:34:56.847Z,11.08
2023-03-02T11:40:26.492Z,11.25
2023-03-02T11:45:36.296Z,11.40
2023-03-02T11:50:51.224Z,11.59
2023-03-02T11:55:53.008Z,11.79
2023-03-02T12:00:55.820Z,12.04
2023-03-02T12:06:07.287Z,12.09
2023-03-02T12:11:35.262Z,12.22
2023-03-02T12:16:43.577Z,12.31
2023-03-02T12:22:00.627Z,12.44
2023-03-02T12:27:20.884Z,12.56
2023-03-02T12:32:27.844Z,12.57
2023-03-02T12:37:34.972Z,12.64
2023-03-02T12:43:08.935Z,12.92
2023-03-02T12:48:52.693Z,13.07
2023-03-02T12:54:12.157Z,13.37
2023-03-02T12:59:26.736Z,13.60
2023-03-02T13:04:28.546Z,13.39
2023-03-02T13:09:30.421Z,13.53
2023-03-02T13:14:32.682Z,13.64
2023-03-02T13:19:34.615Z,13.85
2023-03-02T13:24:50.253Z,13.99
2023-03-02T13:29:55.468Z,13.87
2023-03-02T13:34:59.621Z,13.66
2023-03-02T13:40:04.254Z,13.88
2023-03-02T13:45:17.200Z,14.06
2023-03-02T13:50:21.231Z,14.06
2023-03-02T13:55:23.862Z,14.22
2023-03-02T14:00:28.494Z,14.42
2023-03-02T14:05:33.468Z,14.40
2023-03-02T14:10:35.316Z,14.25
2023-03-02T14:15:43.258Z,13.78
2023-03-02T14:20:46.152Z,13.99
2023-03-02T14:25:48.075Z,14.27
2023-03-02T14:30:54.839Z,14.43
2023-03-02T14:35:58.697Z,14.22
2023-03-02T14:41:00.468Z,14.23
2023-03-02T14:46:02.261Z,14.32
2023-03-02T14:51:04.669Z,14.29
2023-03-02T14:56:07.974Z,14.30
2023-03-02T15:01:14.884Z,14.33
2023-03-02T15:06:26.070Z,14.39
2023-03-02T15:11:29.037Z,14.32
2023-03-02T15:16:33.841Z,14.11
2023-03-02T15:21:35.627Z,13.98
2023-03-02T15:26:39.223Z,14.01
2023-03-02T15:31:41.048Z,13.87
2023-03-02T15:36:45.924Z,13.74
2023-03-02T15:41:47.984Z,13.70
2023-03-02T15:46:55.211Z,13.70
2023-03-02T15:51:57.662Z,13.51
2023-03-02T15:56:59.525Z,13.21
2023-03-02T16:02:08.090Z,13.18
2023-03-02T16:07:09.840Z,13.20
2023-03-02T16:12:11.790Z,13.14
2023-03-02T16:17:14.446Z,13.08
2023-03-02T16:22:16.172Z,12.84
2023-03-02T16:27:18.040Z,12.51
2023-03-02T16:32:21.959Z,12.32
2023-03-02T16:37:23.736Z,12.08
2023-03-02T16:42:25.663Z,11.87
2023-03-02T16:47:27.366Z,11.65
2023-03-02T16:52:29.035Z,11.44
2023-03-02T16:57:30.712Z,11.23
2023-03-02T17:02:32.477Z,11.04
2023-03-02T17:07:34.589Z,10.85
2023-03-02T17:12:36.334Z,10.67
2023-03-02T17:17:38.870Z,10.48
2023-03-02T17:22:41.870Z,10.26
2023-03-02T17:27:44.942Z,9.73
2023-03-02T17:32:47.153Z,9.33
2023-03-02T17:37:48.892Z,9.03
2023-03-02T17:42:54.562Z,8.90
2023-03-02T17:47:58.919Z,8.82
2023-03-02T17:53:00.846Z,8.65
2023-03-02T17:58:02.764Z,8.55
2023-03-02T18:03:04.946Z,8.25
2023-03-02T18:08:06.692Z,7.93
2023-03-02T18:13:08.787Z,7.80
2023-03-02T18:18:10.515Z,7.71
2023-03-02T18:23:13.068Z,7.58
2023-03-02T18:28:16.558Z,7.48
2023-03-02T18:33:18.277Z,7.36
2023-03-02T18:38:19.972Z,7.29
2023-03-02T18:43:21.999Z,7.18
2023-03-02T18:48:24.903Z,7.20
2023-03-02T18:53:26.990Z,7.26
2023-03-02T18:58:33.940Z,7.03
2023-03-02T19:03:37.057Z,6.88
2023-03-02T19:08:38.941Z,6.76
2023-03-02T19:13:40.955Z,6.69
2023-03-02T19:18:42.615Z,6.67
2023-03-02T19:23:46.226Z,6.51
2023-03-02T19:28:48.853Z,6.37
2023-03-02T19:33:50.581Z,6.21
2023-03-02T19:38:52.202Z,5.74
2023-03-02T19:43:54.051Z,5.91
2023-03-02T19:48:55.974Z,5.94
2023-03-02T19:53:57.901Z,6.06
2023-03-02T19:59:00.307Z,5.78
2023-03-02T20:04:02.623Z,5.68
2023-03-02T20:09:06.544Z,5.69
2023-03-02T20:14:08.464Z,5.79
2023-03-02T20:19:11.280Z,5.73
2023-03-02T20:24:16.778Z,5.72
2023-03-02T20:29:18.989Z,5.92
2023-03-02T20:34:20.871Z,5.78
2023-03-02T20:39:32.171Z,5.73
2023-03-02T20:44:34.832Z,5.74
2023-03-02T20:49:37.860Z,5.77
2023-03-02T20:54:42.687Z,5.83
2023-03-02T20:59:45.882Z,5.75
2023-03-02T21:04:50.885Z,5.60
2023-03-02T21:09:52.626Z,5.55
2023-03-02T21:14:54.426Z,5.60
2023-03-02T21:19:57.163Z,5.53
2023-03-02T21:24:59.035Z,5.52
2023-03-02T21:30:03.237Z,5.54
2023-03-02T21:35:05.281Z,5.50
2023-03-02T21:40:10.463Z,5.48
2023-03-02T21:45:12.941Z,5.49
2023-03-02T21:50:22.406Z,5.46
2023-03-02T21:55:24.093Z,5.35
2023-03-02T22:00:34.268Z,5.28
2023-03-02T22:05:36.362Z,5.18
2023-03-02T22:10:41.680Z,5.15
2023-03-02T22:15:47.960Z,5.03
2023-03-02T22:20:51.181Z,4.95
2023-03-02T22:25:55.684Z,4.84
2023-03-02T22:30:59.763Z,4.71
2023-03-02T22:36:12.160Z,4.74
2023-03-02T22:41:18.047Z,4.72
2023-03-02T22:46:21.695Z,4.66
2023-03-02T22:51:28.185Z,4.55
2023-03-02T22:56:38.284Z,4.53
2023-03-02T23:01:42.696Z,4.50
2023-03-02T23:06:46.400Z,4.41
2023-03-02T23:11:50.324Z,4.40
2023-03-02T23:16:55.096Z,4.42
2023-03-02T23:21:58.026Z,4.39
2023-03-02T23:26:59.542Z,4.04
2023-03-02T23:32:01.689Z,4.07
2023-03-02T23:37:03.619Z,4.00
2023-03-02T23:42:05.841Z,3.75
2023-03-02T23:47:07.951Z,3.85
2023-03-02T23:52:09.830Z,3.93
2023-03-02T23:57:11.933Z,3.92
